Terminal Aerodrome Forecast
Issued by NWS Chicago, IL

Home | Current Version | Previous Version | Text Only | Print | Product List | Glossary Off
Versions: 1 2 3 4 5 6 7 8 9 10 11 12 13 14 15 16 17 18 19 20 21 22 23 24 25 26 27 28 29

507
FTUS43 KLOT 281738
TAFRFD
TAF
KRFD 281738Z 2818/2918 08005KT P6SM BKN045 OVC080
     FM281900 09007KT P6SM -SHRA OVC035
     FM282300 05007KT 6SM -SHRA BR OVC020
     FM290200 04010KT 6SM BR SCT008 OVC012
     FM291000 05012G19KT 6SM BR OVC020
     FM291400 05016G26KT P6SM OVC020=

USA.gov is the U.S. government's official web portal to all federal, state and local government web resources and services.